sensor_id;sensor_type;location;lat;lon;timestamp;P1;durP1;ratioP1;P2;durP2;ratioP2
26437;SDS011;14133;48.430;9.888;2022-08-19T00:08:36;2.45;;;1.10;;
26437;SDS011;14133;48.430;9.888;2022-08-19T00:18:17;2.50;;;1.17;;
26437;SDS011;14133;48.430;9.888;2022-08-19T00:27:57;2.40;;;1.10;;
26437;SDS011;14133;48.430;9.888;2022-08-19T00:37:39;2.45;;;1.10;;
26437;SDS011;14133;48.430;9.888;2022-08-19T00:47:23;2.50;;;1.10;;
26437;SDS011;14133;48.430;9.888;2022-08-19T00:57:09;2.40;;;1.14;;
26437;SDS011;14133;48.430;9.888;2022-08-19T01:16:43;2.40;;;1.10;;
26437;SDS011;14133;48.430;9.888;2022-08-19T01:26:26;2.40;;;1.00;;
26437;SDS011;14133;48.430;9.888;2022-08-19T01:36:09;2.47;;;1.15;;
26437;SDS011;14133;48.430;9.888;2022-08-19T01:46:02;2.47;;;1.10;;
26437;SDS011;14133;48.430;9.888;2022-08-19T01:55:43;2.42;;;1.10;;
26437;SDS011;14133;48.430;9.888;2022-08-19T02:05:24;2.40;;;1.08;;
26437;SDS011;14133;48.430;9.888;2022-08-19T02:15:05;2.40;;;1.10;;
26437;SDS011;14133;48.430;9.888;2022-08-19T02:24:47;2.40;;;1.00;;
26437;SDS011;14133;48.430;9.888;2022-08-19T02:34:27;2.50;;;1.10;;
26437;SDS011;14133;48.430;9.888;2022-08-19T02:44:08;2.42;;;1.05;;
26437;SDS011;14133;48.430;9.888;2022-08-19T02:53:48;2.40;;;1.05;;
26437;SDS011;14133;48.430;9.888;2022-08-19T03:03:29;2.40;;;1.05;;
26437;SDS011;14133;48.430;9.888;2022-08-19T03:13:11;2.47;;;1.13;;
26437;SDS011;14133;48.430;9.888;2022-08-19T03:22:55;2.37;;;1.13;;
26437;SDS011;14133;48.430;9.888;2022-08-19T03:32:35;2.50;;;1.10;;
26437;SDS011;14133;48.430;9.888;2022-08-19T03:42:16;2.40;;;1.10;;
26437;SDS011;14133;48.430;9.888;2022-08-19T03:51:57;2.40;;;1.10;;
26437;SDS011;14133;48.430;9.888;2022-08-19T04:01:40;2.47;;;1.10;;
26437;SDS011;14133;48.430;9.888;2022-08-19T04:11:22;2.47;;;1.10;;
26437;SDS011;14133;48.430;9.888;2022-08-19T04:21:05;2.45;;;1.10;;
26437;SDS011;14133;48.430;9.888;2022-08-19T04:30:48;2.40;;;1.00;;
26437;SDS011;14133;48.430;9.888;2022-08-19T04:40:30;2.40;;;1.00;;
26437;SDS011;14133;48.430;9.888;2022-08-19T04:50:30;2.40;;;1.10;;
26437;SDS011;14133;48.430;9.888;2022-08-19T05:00:10;2.42;;;1.10;;
26437;SDS011;14133;48.430;9.888;2022-08-19T05:09:51;2.40;;;1.00;;
26437;SDS011;14133;48.430;9.888;2022-08-19T05:19:32;2.40;;;1.02;;
26437;SDS011;14133;48.430;9.888;2022-08-19T05:29:31;2.40;;;1.02;;
26437;SDS011;14133;48.430;9.888;2022-08-19T05:39:14;2.45;;;1.10;;
26437;SDS011;14133;48.430;9.888;2022-08-19T05:48:56;2.40;;;1.00;;
26437;SDS011;14133;48.430;9.888;2022-08-19T05:58:37;2.42;;;1.08;;
26437;SDS011;14133;48.430;9.888;2022-08-19T06:08:18;2.40;;;1.02;;
26437;SDS011;14133;48.430;9.888;2022-08-19T06:17:59;2.45;;;1.10;;
26437;SDS011;14133;48.430;9.888;2022-08-19T06:27:41;2.40;;;1.05;;
26437;SDS011;14133;48.430;9.888;2022-08-19T06:37:21;2.40;;;1.02;;
26437;SDS011;14133;48.430;9.888;2022-08-19T06:47:03;2.42;;;1.05;;
26437;SDS011;14133;48.430;9.888;2022-08-19T06:56:45;2.40;;;1.00;;
26437;SDS011;14133;48.430;9.888;2022-08-19T07:06:26;2.42;;;1.10;;
26437;SDS011;14133;48.430;9.888;2022-08-19T07:16:07;2.40;;;1.02;;
26437;SDS011;14133;48.430;9.888;2022-08-19T07:25:47;2.40;;;1.00;;
26437;SDS011;14133;48.430;9.888;2022-08-19T07:35:28;2.40;;;1.05;;
26437;SDS011;14133;48.430;9.888;2022-08-19T07:45:08;2.40;;;1.00;;
26437;SDS011;14133;48.430;9.888;2022-08-19T07:54:49;2.40;;;1.00;;
26437;SDS011;14133;48.430;9.888;2022-08-19T08:04:30;2.40;;;1.02;;
26437;SDS011;14133;48.430;9.888;2022-08-19T08:14:51;2.40;;;1.05;;
26437;SDS011;14133;48.430;9.888;2022-08-19T08:24:34;2.40;;;1.00;;
26437;SDS011;14133;48.430;9.888;2022-08-19T08:34:15;2.40;;;1.00;;
26437;SDS011;14133;48.430;9.888;2022-08-19T08:43:56;2.40;;;1.00;;
26437;SDS011;14133;48.430;9.888;2022-08-19T08:53:38;2.40;;;1.00;;
26437;SDS011;14133;48.430;9.888;2022-08-19T09:03:22;2.40;;;1.02;;
26437;SDS011;14133;48.430;9.888;2022-08-19T09:23:07;2.40;;;1.00;;
26437;SDS011;14133;48.430;9.888;2022-08-19T09:32:48;2.40;;;1.10;;
26437;SDS011;14133;48.430;9.888;2022-08-19T09:42:28;2.45;;;1.10;;
26437;SDS011;14133;48.430;9.888;2022-08-19T09:52:09;2.40;;;1.00;;
26437;SDS011;14133;48.430;9.888;2022-08-19T10:01:51;2.47;;;1.10;;
26437;SDS011;14133;48.430;9.888;2022-08-19T10:11:32;2.55;;;1.30;;
26437;SDS011;14133;48.430;9.888;2022-08-19T10:21:21;2.33;;;1.10;;
26437;SDS011;14133;48.430;9.888;2022-08-19T10:31:07;2.35;;;1.00;;
26437;SDS011;14133;48.430;9.888;2022-08-19T10:40:54;2.40;;;1.00;;
26437;SDS011;14133;48.430;9.888;2022-08-19T10:50:36;2.40;;;1.00;;
26437;SDS011;14133;48.430;9.888;2022-08-19T11:00:35;2.40;;;1.05;;
26437;SDS011;14133;48.430;9.888;2022-08-19T11:10:15;2.40;;;1.00;;
26437;SDS011;14133;48.430;9.888;2022-08-19T11:19:58;2.47;;;1.10;;
26437;SDS011;14133;48.430;9.888;2022-08-19T11:29:43;2.40;;;1.00;;
26437;SDS011;14133;48.430;9.888;2022-08-19T11:39:24;2.40;;;0.98;;
26437;SDS011;14133;48.430;9.888;2022-08-19T11:49:06;2.38;;;1.00;;
26437;SDS011;14133;48.430;9.888;2022-08-19T11:58:49;2.40;;;1.00;;
26437;SDS011;14133;48.430;9.888;2022-08-19T12:08:30;2.40;;;0.95;;
26437;SDS011;14133;48.430;9.888;2022-08-19T12:28:31;2.40;;;1.00;;
26437;SDS011;14133;48.430;9.888;2022-08-19T12:38:11;2.40;;;1.00;;
26437;SDS011;14133;48.430;9.888;2022-08-19T12:47:53;2.40;;;1.05;;
26437;SDS011;14133;48.430;9.888;2022-08-19T12:57:33;2.40;;;1.00;;
26437;SDS011;14133;48.430;9.888;2022-08-19T13:07:15;2.40;;;1.00;;
26437;SDS011;14133;48.430;9.888;2022-08-19T13:16:56;2.35;;;0.90;;
26437;SDS011;14133;48.430;9.888;2022-08-19T13:26:37;2.40;;;1.00;;
26437;SDS011;14133;48.430;9.888;2022-08-19T13:36:17;2.40;;;1.00;;
26437;SDS011;14133;48.430;9.888;2022-08-19T13:45:58;2.40;;;0.93;;
26437;SDS011;14133;48.430;9.888;2022-08-19T14:05:23;2.38;;;0.93;;
26437;SDS011;14133;48.430;9.888;2022-08-19T14:15:06;2.40;;;1.00;;
26437;SDS011;14133;48.430;9.888;2022-08-19T14:24:47;2.38;;;0.90;;
26437;SDS011;14133;48.430;9.888;2022-08-19T14:34:28;2.40;;;0.98;;
26437;SDS011;14133;48.430;9.888;2022-08-19T14:44:08;2.40;;;1.00;;
26437;SDS011;14133;48.430;9.888;2022-08-19T14:53:52;2.40;;;1.00;;
26437;SDS011;14133;48.430;9.888;2022-08-19T15:03:32;2.40;;;1.02;;
26437;SDS011;14133;48.430;9.888;2022-08-19T15:13:13;2.40;;;1.00;;
26437;SDS011;14133;48.430;9.888;2022-08-19T15:22:53;2.35;;;0.90;;
26437;SDS011;14133;48.430;9.888;2022-08-19T15:32:33;2.40;;;1.00;;
26437;SDS011;14133;48.430;9.888;2022-08-19T15:42:16;2.40;;;0.95;;
26437;SDS011;14133;48.430;9.888;2022-08-19T15:51:57;2.40;;;1.00;;
26437;SDS011;14133;48.430;9.888;2022-08-19T16:01:39;2.40;;;0.93;;
26437;SDS011;14133;48.430;9.888;2022-08-19T16:11:38;2.40;;;0.95;;
26437;SDS011;14133;48.430;9.888;2022-08-19T16:21:19;2.35;;;0.93;;
26437;SDS011;14133;48.430;9.888;2022-08-19T16:31:00;2.40;;;1.00;;
26437;SDS011;14133;48.430;9.888;2022-08-19T16:40:40;2.38;;;0.95;;
26437;SDS011;14133;48.430;9.888;2022-08-19T16:50:21;2.40;;;1.05;;
26437;SDS011;14133;48.430;9.888;2022-08-19T17:00:03;2.40;;;1.00;;
26437;SDS011;14133;48.430;9.888;2022-08-19T17:09:49;2.40;;;1.02;;
26437;SDS011;14133;48.430;9.888;2022-08-19T17:19:29;2.40;;;1.00;;
26437;SDS011;14133;48.430;9.888;2022-08-19T17:29:09;2.40;;;1.00;;
26437;SDS011;14133;48.430;9.888;2022-08-19T17:38:51;2.40;;;1.00;;
26437;SDS011;14133;48.430;9.888;2022-08-19T17:48:34;2.40;;;1.00;;
26437;SDS011;14133;48.430;9.888;2022-08-19T17:58:17;2.40;;;0.98;;
26437;SDS011;14133;48.430;9.888;2022-08-19T18:07:59;2.33;;;0.90;;
26437;SDS011;14133;48.430;9.888;2022-08-19T18:17:40;2.40;;;1.00;;
26437;SDS011;14133;48.430;9.888;2022-08-19T18:27:21;2.40;;;0.95;;
26437;SDS011;14133;48.430;9.888;2022-08-19T18:37:02;2.40;;;1.00;;
26437;SDS011;14133;48.430;9.888;2022-08-19T18:46:42;2.38;;;0.90;;
26437;SDS011;14133;48.430;9.888;2022-08-19T18:56:41;2.40;;;1.00;;
26437;SDS011;14133;48.430;9.888;2022-08-19T19:06:26;2.40;;;1.00;;
26437;SDS011;14133;48.430;9.888;2022-08-19T19:16:09;2.23;;;0.90;;
26437;SDS011;14133;48.430;9.888;2022-08-19T19:25:50;2.38;;;0.90;;
26437;SDS011;14133;48.430;9.888;2022-08-19T19:35:31;2.40;;;0.90;;
26437;SDS011;14133;48.430;9.888;2022-08-19T19:45:12;2.35;;;0.90;;
26437;SDS011;14133;48.430;9.888;2022-08-19T20:04:44;2.40;;;0.90;;
26437;SDS011;14133;48.430;9.888;2022-08-19T20:14:29;2.40;;;0.93;;
26437;SDS011;14133;48.430;9.888;2022-08-19T20:24:13;2.33;;;1.05;;
26437;SDS011;14133;48.430;9.888;2022-08-19T20:33:57;2.23;;;0.90;;
26437;SDS011;14133;48.430;9.888;2022-08-19T20:43:37;2.35;;;0.82;;
26437;SDS011;14133;48.430;9.888;2022-08-19T20:53:18;2.35;;;0.90;;
26437;SDS011;14133;48.430;9.888;2022-08-19T21:03:01;2.40;;;1.00;;
26437;SDS011;14133;48.430;9.888;2022-08-19T21:12:42;2.38;;;0.90;;
26437;SDS011;14133;48.430;9.888;2022-08-19T21:22:23;2.38;;;0.90;;
26437;SDS011;14133;48.430;9.888;2022-08-19T21:32:03;2.33;;;0.90;;
26437;SDS011;14133;48.430;9.888;2022-08-19T21:41:44;2.38;;;0.90;;
26437;SDS011;14133;48.430;9.888;2022-08-19T21:51:25;2.40;;;0.90;;
26437;SDS011;14133;48.430;9.888;2022-08-19T22:01:05;2.38;;;0.90;;
26437;SDS011;14133;48.430;9.888;2022-08-19T22:10:46;2.35;;;0.93;;
26437;SDS011;14133;48.430;9.888;2022-08-19T22:20:29;2.35;;;0.90;;
26437;SDS011;14133;48.430;9.888;2022-08-19T22:30:11;2.40;;;0.93;;
26437;SDS011;14133;48.430;9.888;2022-08-19T22:39:53;2.38;;;0.95;;
26437;SDS011;14133;48.430;9.888;2022-08-19T22:49:34;2.40;;;0.90;;
26437;SDS011;14133;48.430;9.888;2022-08-19T22:59:15;2.38;;;0.98;;
26437;SDS011;14133;48.430;9.888;2022-08-19T23:08:55;2.35;;;0.90;;
26437;SDS011;14133;48.430;9.888;2022-08-19T23:18:36;2.38;;;0.90;;
26437;SDS011;14133;48.430;9.888;2022-08-19T23:28:16;2.38;;;0.90;;
26437;SDS011;14133;48.430;9.888;2022-08-19T23:38:15;2.40;;;0.90;;
26437;SDS011;14133;48.430;9.888;2022-08-19T23:47:58;2.35;;;0.90;;
26437;SDS011;14133;48.430;9.888;2022-08-19T23:57:38;2.35;;;0.90;;
